sensor_id;sensor_type;location;lat;lon;timestamp;P1;durP1;ratioP1;P2;durP2;ratioP2
50495;SDS011;38806;51.554;5.704;2022-10-17T00:01:19;22.08;;;12.82;;
50495;SDS011;38806;51.554;5.704;2022-10-17T00:03:19;18.00;;;12.30;;
50495;SDS011;38806;51.554;5.704;2022-10-17T00:05:20;21.60;;;15.18;;
50495;SDS011;38806;51.554;5.704;2022-10-17T00:07:20;22.30;;;14.38;;
50495;SDS011;38806;51.554;5.704;2022-10-17T00:09:20;20.33;;;14.15;;
50495;SDS011;38806;51.554;5.704;2022-10-17T00:11:21;19.38;;;13.20;;
50495;SDS011;38806;51.554;5.704;2022-10-17T00:13:22;24.20;;;15.98;;
50495;SDS011;38806;51.554;5.704;2022-10-17T00:15:23;19.88;;;14.48;;
50495;SDS011;38806;51.554;5.704;2022-10-17T00:17:23;23.17;;;15.63;;
50495;SDS011;38806;51.554;5.704;2022-10-17T00:19:23;18.27;;;12.75;;
50495;SDS011;38806;51.554;5.704;2022-10-17T00:21:24;19.73;;;13.57;;
50495;SDS011;38806;51.554;5.704;2022-10-17T00:23:25;18.15;;;12.93;;
50495;SDS011;38806;51.554;5.704;2022-10-17T00:25:27;20.45;;;13.30;;
50495;SDS011;38806;51.554;5.704;2022-10-17T00:27:27;24.38;;;15.52;;
50495;SDS011;38806;51.554;5.704;2022-10-17T00:29:28;24.63;;;15.07;;
50495;SDS011;38806;51.554;5.704;2022-10-17T00:31:28;18.55;;;12.90;;
50495;SDS011;38806;51.554;5.704;2022-10-17T00:33:28;19.17;;;14.02;;
50495;SDS011;38806;51.554;5.704;2022-10-17T00:35:30;19.73;;;13.90;;
50495;SDS011;38806;51.554;5.704;2022-10-17T00:37:30;21.48;;;13.63;;
50495;SDS011;38806;51.554;5.704;2022-10-17T00:39:31;21.73;;;14.55;;
50495;SDS011;38806;51.554;5.704;2022-10-17T00:41:32;19.92;;;13.68;;
50495;SDS011;38806;51.554;5.704;2022-10-17T00:45:52;20.38;;;14.98;;
50495;SDS011;38806;51.554;5.704;2022-10-17T00:48:03;21.70;;;14.70;;
50495;SDS011;38806;51.554;5.704;2022-10-17T00:50:05;18.65;;;14.02;;
50495;SDS011;38806;51.554;5.704;2022-10-17T00:52:25;22.60;;;15.63;;
50495;SDS011;38806;51.554;5.704;2022-10-17T00:54:38;22.88;;;14.55;;
50495;SDS011;38806;51.554;5.704;2022-10-17T00:56:42;16.27;;;11.75;;
50495;SDS011;38806;51.554;5.704;2022-10-17T00:58:43;18.02;;;12.48;;
50495;SDS011;38806;51.554;5.704;2022-10-17T01:00:43;24.50;;;13.70;;
50495;SDS011;38806;51.554;5.704;2022-10-17T01:02:45;20.52;;;13.25;;
50495;SDS011;38806;51.554;5.704;2022-10-17T01:04:47;23.95;;;15.75;;
50495;SDS011;38806;51.554;5.704;2022-10-17T01:06:50;17.58;;;12.50;;
50495;SDS011;38806;51.554;5.704;2022-10-17T01:08:51;19.52;;;13.98;;
50495;SDS011;38806;51.554;5.704;2022-10-17T01:15:17;23.02;;;13.90;;
50495;SDS011;38806;51.554;5.704;2022-10-17T01:22:26;20.95;;;14.05;;
50495;SDS011;38806;51.554;5.704;2022-10-17T01:24:32;21.33;;;13.57;;
50495;SDS011;38806;51.554;5.704;2022-10-17T01:29:28;18.35;;;12.35;;
50495;SDS011;38806;51.554;5.704;2022-10-17T01:33:55;18.33;;;13.48;;
50495;SDS011;38806;51.554;5.704;2022-10-17T01:38:29;23.05;;;16.20;;
50495;SDS011;38806;51.554;5.704;2022-10-17T01:42:56;23.25;;;13.93;;
50495;SDS011;38806;51.554;5.704;2022-10-17T01:45:02;23.60;;;14.83;;
50495;SDS011;38806;51.554;5.704;2022-10-17T01:47:25;22.63;;;13.95;;
50495;SDS011;38806;51.554;5.704;2022-10-17T01:49:29;25.38;;;15.00;;
50495;SDS011;38806;51.554;5.704;2022-10-17T01:51:32;20.95;;;14.65;;
50495;SDS011;38806;51.554;5.704;2022-10-17T01:53:41;21.52;;;14.70;;
50495;SDS011;38806;51.554;5.704;2022-10-17T01:55:48;20.88;;;13.90;;
50495;SDS011;38806;51.554;5.704;2022-10-17T01:57:56;21.30;;;13.45;;
50495;SDS011;38806;51.554;5.704;2022-10-17T02:00:00;20.08;;;14.27;;
50495;SDS011;38806;51.554;5.704;2022-10-17T02:02:04;21.50;;;14.55;;
50495;SDS011;38806;51.554;5.704;2022-10-17T02:04:05;23.45;;;14.75;;
50495;SDS011;38806;51.554;5.704;2022-10-17T02:06:08;23.50;;;16.08;;
50495;SDS011;38806;51.554;5.704;2022-10-17T02:08:09;23.73;;;15.32;;
50495;SDS011;38806;51.554;5.704;2022-10-17T02:10:13;17.27;;;13.05;;
50495;SDS011;38806;51.554;5.704;2022-10-17T02:21:38;21.55;;;15.02;;
50495;SDS011;38806;51.554;5.704;2022-10-17T02:24:19;24.20;;;15.40;;
50495;SDS011;38806;51.554;5.704;2022-10-17T02:26:48;25.35;;;15.45;;
50495;SDS011;38806;51.554;5.704;2022-10-17T02:29:04;20.35;;;14.05;;
50495;SDS011;38806;51.554;5.704;2022-10-17T02:31:19;22.95;;;15.85;;
50495;SDS011;38806;51.554;5.704;2022-10-17T02:33:39;20.85;;;14.70;;
50495;SDS011;38806;51.554;5.704;2022-10-17T02:35:45;21.13;;;15.05;;
50495;SDS011;38806;51.554;5.704;2022-10-17T02:37:49;21.92;;;13.98;;
50495;SDS011;38806;51.554;5.704;2022-10-17T02:39:50;25.05;;;16.15;;
50495;SDS011;38806;51.554;5.704;2022-10-17T02:41:51;24.95;;;14.75;;
50495;SDS011;38806;51.554;5.704;2022-10-17T02:43:53;19.05;;;13.77;;
50495;SDS011;38806;51.554;5.704;2022-10-17T02:45:54;18.33;;;13.68;;
50495;SDS011;38806;51.554;5.704;2022-10-17T02:48:07;26.33;;;16.75;;
50495;SDS011;38806;51.554;5.704;2022-10-17T02:50:11;18.55;;;13.95;;
50495;SDS011;38806;51.554;5.704;2022-10-17T02:52:13;21.55;;;14.52;;
50495;SDS011;38806;51.554;5.704;2022-10-17T02:54:21;25.33;;;14.43;;
50495;SDS011;38806;51.554;5.704;2022-10-17T02:56:26;27.88;;;16.83;;
50495;SDS011;38806;51.554;5.704;2022-10-17T02:58:30;23.67;;;15.93;;
50495;SDS011;38806;51.554;5.704;2022-10-17T03:00:32;21.67;;;16.10;;
50495;SDS011;38806;51.554;5.704;2022-10-17T03:02:37;22.77;;;15.10;;
50495;SDS011;38806;51.554;5.704;2022-10-17T03:04:42;21.73;;;16.02;;
50495;SDS011;38806;51.554;5.704;2022-10-17T03:06:43;21.45;;;14.95;;
50495;SDS011;38806;51.554;5.704;2022-10-17T03:08:46;23.48;;;15.35;;
50495;SDS011;38806;51.554;5.704;2022-10-17T03:10:46;23.05;;;16.75;;
50495;SDS011;38806;51.554;5.704;2022-10-17T03:12:46;28.15;;;16.40;;
50495;SDS011;38806;51.554;5.704;2022-10-17T03:14:47;24.38;;;15.38;;
50495;SDS011;38806;51.554;5.704;2022-10-17T03:16:47;25.33;;;15.40;;
50495;SDS011;38806;51.554;5.704;2022-10-17T03:18:48;22.60;;;15.30;;
50495;SDS011;38806;51.554;5.704;2022-10-17T03:20:48;21.73;;;15.10;;
50495;SDS011;38806;51.554;5.704;2022-10-17T03:22:48;23.98;;;15.40;;
50495;SDS011;38806;51.554;5.704;2022-10-17T03:24:48;22.27;;;13.93;;
50495;SDS011;38806;51.554;5.704;2022-10-17T03:26:49;31.42;;;17.02;;
50495;SDS011;38806;51.554;5.704;2022-10-17T03:28:49;24.27;;;15.75;;
50495;SDS011;38806;51.554;5.704;2022-10-17T03:30:50;22.85;;;16.30;;
50495;SDS011;38806;51.554;5.704;2022-10-17T03:32:50;24.52;;;16.92;;
50495;SDS011;38806;51.554;5.704;2022-10-17T03:34:50;22.67;;;15.52;;
50495;SDS011;38806;51.554;5.704;2022-10-17T03:36:50;29.13;;;18.60;;
50495;SDS011;38806;51.554;5.704;2022-10-17T03:38:54;23.23;;;15.40;;
50495;SDS011;38806;51.554;5.704;2022-10-17T03:40:54;23.35;;;16.00;;
50495;SDS011;38806;51.554;5.704;2022-10-17T03:42:55;26.05;;;15.27;;
50495;SDS011;38806;51.554;5.704;2022-10-17T03:44:56;23.90;;;15.55;;
50495;SDS011;38806;51.554;5.704;2022-10-17T03:46:56;21.42;;;16.90;;
50495;SDS011;38806;51.554;5.704;2022-10-17T03:48:56;23.85;;;15.43;;
50495;SDS011;38806;51.554;5.704;2022-10-17T03:51:00;23.83;;;15.35;;
50495;SDS011;38806;51.554;5.704;2022-10-17T03:53:03;23.35;;;17.52;;
50495;SDS011;38806;51.554;5.704;2022-10-17T03:55:03;23.35;;;16.08;;
50495;SDS011;38806;51.554;5.704;2022-10-17T03:57:04;24.35;;;15.05;;
50495;SDS011;38806;51.554;5.704;2022-10-17T03:59:04;21.92;;;15.93;;
50495;SDS011;38806;51.554;5.704;2022-10-17T04:01:05;24.10;;;15.80;;
50495;SDS011;38806;51.554;5.704;2022-10-17T04:03:06;22.45;;;14.90;;
50495;SDS011;38806;51.554;5.704;2022-10-17T04:05:06;23.58;;;15.90;;
50495;SDS011;38806;51.554;5.704;2022-10-17T04:07:07;24.85;;;17.80;;
50495;SDS011;38806;51.554;5.704;2022-10-17T04:09:08;25.92;;;17.65;;
50495;SDS011;38806;51.554;5.704;2022-10-17T04:11:09;21.38;;;16.25;;
50495;SDS011;38806;51.554;5.704;2022-10-17T04:13:13;23.08;;;16.20;;
50495;SDS011;38806;51.554;5.704;2022-10-17T04:15:14;23.65;;;15.98;;
50495;SDS011;38806;51.554;5.704;2022-10-17T04:17:14;23.60;;;16.35;;
50495;SDS011;38806;51.554;5.704;2022-10-17T04:19:14;22.85;;;15.27;;
50495;SDS011;38806;51.554;5.704;2022-10-17T04:21:14;24.92;;;15.35;;
50495;SDS011;38806;51.554;5.704;2022-10-17T04:23:15;23.40;;;16.17;;
50495;SDS011;38806;51.554;5.704;2022-10-17T04:25:15;23.60;;;16.73;;
50495;SDS011;38806;51.554;5.704;2022-10-17T04:27:16;23.42;;;15.90;;
50495;SDS011;38806;51.554;5.704;2022-10-17T04:29:16;22.80;;;16.05;;
50495;SDS011;38806;51.554;5.704;2022-10-17T04:31:17;24.10;;;16.33;;
50495;SDS011;38806;51.554;5.704;2022-10-17T04:33:17;28.52;;;16.40;;
50495;SDS011;38806;51.554;5.704;2022-10-17T04:35:18;19.27;;;14.85;;
50495;SDS011;38806;51.554;5.704;2022-10-17T04:37:18;23.33;;;14.55;;
50495;SDS011;38806;51.554;5.704;2022-10-17T04:39:18;20.85;;;15.38;;
50495;SDS011;38806;51.554;5.704;2022-10-17T04:41:18;22.02;;;15.60;;
50495;SDS011;38806;51.554;5.704;2022-10-17T04:43:19;23.15;;;15.13;;
50495;SDS011;38806;51.554;5.704;2022-10-17T04:45:19;21.67;;;15.13;;
50495;SDS011;38806;51.554;5.704;2022-10-17T04:47:19;16.98;;;12.35;;
50495;SDS011;38806;51.554;5.704;2022-10-17T04:49:20;22.23;;;13.38;;
50495;SDS011;38806;51.554;5.704;2022-10-17T04:51:20;19.88;;;13.27;;
50495;SDS011;38806;51.554;5.704;2022-10-17T04:53:21;22.13;;;12.13;;
50495;SDS011;38806;51.554;5.704;2022-10-17T04:55:22;20.05;;;13.00;;
50495;SDS011;38806;51.554;5.704;2022-10-17T04:57:22;16.08;;;12.15;;
50495;SDS011;38806;51.554;5.704;2022-10-17T04:59:23;18.33;;;13.27;;
50495;SDS011;38806;51.554;5.704;2022-10-17T05:01:24;22.13;;;12.68;;
50495;SDS011;38806;51.554;5.704;2022-10-17T05:03:25;19.73;;;11.75;;
50495;SDS011;38806;51.554;5.704;2022-10-17T05:05:25;17.85;;;11.80;;
50495;SDS011;38806;51.554;5.704;2022-10-17T05:07:26;18.10;;;12.13;;
50495;SDS011;38806;51.554;5.704;2022-10-17T05:09:26;16.77;;;11.75;;
50495;SDS011;38806;51.554;5.704;2022-10-17T05:11:27;19.30;;;12.10;;
50495;SDS011;38806;51.554;5.704;2022-10-17T05:13:28;20.00;;;12.60;;
50495;SDS011;38806;51.554;5.704;2022-10-17T05:15:29;21.83;;;12.98;;
50495;SDS011;38806;51.554;5.704;2022-10-17T05:17:29;16.60;;;12.45;;
50495;SDS011;38806;51.554;5.704;2022-10-17T05:19:29;17.45;;;12.45;;
50495;SDS011;38806;51.554;5.704;2022-10-17T05:21:30;18.48;;;11.77;;
50495;SDS011;38806;51.554;5.704;2022-10-17T05:23:30;18.63;;;11.95;;
50495;SDS011;38806;51.554;5.704;2022-10-17T05:25:30;16.88;;;11.73;;
50495;SDS011;38806;51.554;5.704;2022-10-17T05:27:31;16.25;;;11.90;;
50495;SDS011;38806;51.554;5.704;2022-10-17T05:29:32;18.08;;;11.38;;
50495;SDS011;38806;51.554;5.704;2022-10-17T05:31:33;16.58;;;11.82;;
50495;SDS011;38806;51.554;5.704;2022-10-17T05:33:34;17.63;;;12.07;;
50495;SDS011;38806;51.554;5.704;2022-10-17T05:35:35;18.88;;;12.73;;
50495;SDS011;38806;51.554;5.704;2022-10-17T05:37:35;17.42;;;11.13;;
50495;SDS011;38806;51.554;5.704;2022-10-17T05:39:35;19.02;;;11.40;;
50495;SDS011;38806;51.554;5.704;2022-10-17T05:41:36;17.30;;;11.68;;
50495;SDS011;38806;51.554;5.704;2022-10-17T05:43:36;21.85;;;12.45;;
50495;SDS011;38806;51.554;5.704;2022-10-17T05:45:36;19.92;;;12.82;;
50495;SDS011;38806;51.554;5.704;2022-10-17T05:47:36;22.65;;;12.18;;
50495;SDS011;38806;51.554;5.704;2022-10-17T05:49:37;18.83;;;13.10;;
50495;SDS011;38806;51.554;5.704;2022-10-17T05:51:37;16.77;;;11.63;;
50495;SDS011;38806;51.554;5.704;2022-10-17T05:53:38;27.05;;;12.50;;
50495;SDS011;38806;51.554;5.704;2022-10-17T05:55:40;20.30;;;12.70;;
50495;SDS011;38806;51.554;5.704;2022-10-17T05:57:40;17.60;;;12.18;;
50495;SDS011;38806;51.554;5.704;2022-10-17T05:59:40;22.92;;;13.35;;
50495;SDS011;38806;51.554;5.704;2022-10-17T06:01:40;18.92;;;12.02;;
50495;SDS011;38806;51.554;5.704;2022-10-17T06:03:41;17.23;;;11.43;;
50495;SDS011;38806;51.554;5.704;2022-10-17T06:05:41;17.65;;;11.43;;
50495;SDS011;38806;51.554;5.704;2022-10-17T06:07:41;20.40;;;12.77;;
50495;SDS011;38806;51.554;5.704;2022-10-17T06:09:42;18.30;;;11.65;;
50495;SDS011;38806;51.554;5.704;2022-10-17T06:11:42;16.48;;;11.20;;
50495;SDS011;38806;51.554;5.704;2022-10-17T06:13:43;16.35;;;11.25;;
50495;SDS011;38806;51.554;5.704;2022-10-17T06:15:43;17.20;;;10.95;;
50495;SDS011;38806;51.554;5.704;2022-10-17T06:17:44;18.85;;;13.10;;
50495;SDS011;38806;51.554;5.704;2022-10-17T06:19:44;16.05;;;10.82;;
50495;SDS011;38806;51.554;5.704;2022-10-17T06:21:44;17.77;;;10.77;;
50495;SDS011;38806;51.554;5.704;2022-10-17T06:23:45;17.25;;;11.40;;
50495;SDS011;38806;51.554;5.704;2022-10-17T06:25:45;17.10;;;10.52;;
50495;SDS011;38806;51.554;5.704;2022-10-17T06:27:45;16.75;;;12.18;;
50495;SDS011;38806;51.554;5.704;2022-10-17T06:29:46;16.15;;;9.57;;
50495;SDS011;38806;51.554;5.704;2022-10-17T06:31:47;15.32;;;10.00;;
50495;SDS011;38806;51.554;5.704;2022-10-17T06:33:47;15.45;;;10.40;;
50495;SDS011;38806;51.554;5.704;2022-10-17T06:35:54;17.65;;;10.35;;
50495;SDS011;38806;51.554;5.704;2022-10-17T06:37:54;16.45;;;11.05;;
50495;SDS011;38806;51.554;5.704;2022-10-17T06:39:55;19.23;;;11.07;;
50495;SDS011;38806;51.554;5.704;2022-10-17T06:41:55;15.48;;;11.15;;
50495;SDS011;38806;51.554;5.704;2022-10-17T06:43:55;14.65;;;9.77;;
50495;SDS011;38806;51.554;5.704;2022-10-17T06:45:55;17.65;;;10.20;;
50495;SDS011;38806;51.554;5.704;2022-10-17T06:47:56;14.75;;;10.75;;
50495;SDS011;38806;51.554;5.704;2022-10-17T06:49:56;17.25;;;10.57;;
50495;SDS011;38806;51.554;5.704;2022-10-17T06:51:56;15.07;;;10.30;;
50495;SDS011;38806;51.554;5.704;2022-10-17T06:53:57;17.15;;;10.85;;
50495;SDS011;38806;51.554;5.704;2022-10-17T06:55:57;15.57;;;10.90;;
50495;SDS011;38806;51.554;5.704;2022-10-17T06:58:02;14.45;;;10.60;;
50495;SDS011;38806;51.554;5.704;2022-10-17T07:00:03;15.73;;;10.80;;
50495;SDS011;38806;51.554;5.704;2022-10-17T07:02:05;17.05;;;10.05;;
50495;SDS011;38806;51.554;5.704;2022-10-17T07:04:05;14.50;;;9.13;;
50495;SDS011;38806;51.554;5.704;2022-10-17T07:06:05;21.98;;;10.75;;
50495;SDS011;38806;51.554;5.704;2022-10-17T07:08:06;13.43;;;9.68;;
50495;SDS011;38806;51.554;5.704;2022-10-17T07:10:06;17.90;;;10.93;;
50495;SDS011;38806;51.554;5.704;2022-10-17T07:12:08;15.68;;;10.77;;
50495;SDS011;38806;51.554;5.704;2022-10-17T07:14:11;12.55;;;9.70;;
50495;SDS011;38806;51.554;5.704;2022-10-17T07:16:11;13.70;;;9.65;;
50495;SDS011;38806;51.554;5.704;2022-10-17T07:18:12;17.23;;;9.50;;
50495;SDS011;38806;51.554;5.704;2022-10-17T07:20:12;13.52;;;9.00;;
50495;SDS011;38806;51.554;5.704;2022-10-17T07:22:13;14.75;;;9.77;;
50495;SDS011;38806;51.554;5.704;2022-10-17T07:24:13;11.45;;;8.68;;
50495;SDS011;38806;51.554;5.704;2022-10-17T07:26:15;16.77;;;9.27;;
50495;SDS011;38806;51.554;5.704;2022-10-17T07:28:16;13.05;;;9.18;;
50495;SDS011;38806;51.554;5.704;2022-10-17T07:30:16;13.50;;;8.77;;
50495;SDS011;38806;51.554;5.704;2022-10-17T07:32:17;11.27;;;8.52;;
50495;SDS011;38806;51.554;5.704;2022-10-17T07:34:18;13.50;;;8.85;;
50495;SDS011;38806;51.554;5.704;2022-10-17T07:36:18;13.20;;;8.65;;
50495;SDS011;38806;51.554;5.704;2022-10-17T07:38:19;16.15;;;8.23;;
50495;SDS011;38806;51.554;5.704;2022-10-17T07:40:19;13.05;;;7.68;;
50495;SDS011;38806;51.554;5.704;2022-10-17T07:42:20;11.38;;;7.95;;
50495;SDS011;38806;51.554;5.704;2022-10-17T07:44:20;13.65;;;8.27;;
50495;SDS011;38806;51.554;5.704;2022-10-17T07:46:20;13.98;;;9.02;;
50495;SDS011;38806;51.554;5.704;2022-10-17T07:48:21;14.23;;;7.95;;
50495;SDS011;38806;51.554;5.704;2022-10-17T07:50:22;10.57;;;7.18;;
50495;SDS011;38806;51.554;5.704;2022-10-17T07:52:23;10.65;;;8.60;;
50495;SDS011;38806;51.554;5.704;2022-10-17T07:54:23;12.30;;;9.07;;
50495;SDS011;38806;51.554;5.704;2022-10-17T07:56:23;17.27;;;10.02;;
50495;SDS011;38806;51.554;5.704;2022-10-17T07:58:24;12.30;;;7.95;;
50495;SDS011;38806;51.554;5.704;2022-10-17T08:00:25;12.43;;;7.90;;
50495;SDS011;38806;51.554;5.704;2022-10-17T08:02:26;11.65;;;8.40;;
50495;SDS011;38806;51.554;5.704;2022-10-17T08:04:26;13.98;;;9.13;;
50495;SDS011;38806;51.554;5.704;2022-10-17T08:06:27;12.77;;;7.30;;
50495;SDS011;38806;51.554;5.704;2022-10-17T08:08:27;13.18;;;7.38;;
50495;SDS011;38806;51.554;5.704;2022-10-17T08:10:28;9.57;;;6.53;;
50495;SDS011;38806;51.554;5.704;2022-10-17T08:12:28;12.75;;;7.32;;
50495;SDS011;38806;51.554;5.704;2022-10-17T08:14:31;10.10;;;7.13;;
50495;SDS011;38806;51.554;5.704;2022-10-17T08:16:31;10.00;;;6.65;;
50495;SDS011;38806;51.554;5.704;2022-10-17T08:18:32;8.85;;;6.78;;
50495;SDS011;38806;51.554;5.704;2022-10-17T08:20:33;9.80;;;6.32;;
50495;SDS011;38806;51.554;5.704;2022-10-17T08:22:33;10.05;;;6.18;;
50495;SDS011;38806;51.554;5.704;2022-10-17T08:24:34;12.73;;;6.43;;
50495;SDS011;38806;51.554;5.704;2022-10-17T08:26:34;10.13;;;5.93;;
50495;SDS011;38806;51.554;5.704;2022-10-17T08:28:35;20.25;;;6.50;;
50495;SDS011;38806;51.554;5.704;2022-10-17T08:30:36;10.68;;;6.88;;
50495;SDS011;38806;51.554;5.704;2022-10-17T08:32:37;9.90;;;6.82;;
50495;SDS011;38806;51.554;5.704;2022-10-17T08:34:37;11.02;;;6.28;;
50495;SDS011;38806;51.554;5.704;2022-10-17T08:36:37;16.50;;;6.53;;
50495;SDS011;38806;51.554;5.704;2022-10-17T08:38:37;11.73;;;7.07;;
50495;SDS011;38806;51.554;5.704;2022-10-17T08:40:38;16.95;;;6.53;;
50495;SDS011;38806;51.554;5.704;2022-10-17T08:47:10;9.80;;;5.87;;
50495;SDS011;38806;51.554;5.704;2022-10-17T08:49:17;10.35;;;5.90;;
50495;SDS011;38806;51.554;5.704;2022-10-17T08:51:27;9.05;;;6.05;;
50495;SDS011;38806;51.554;5.704;2022-10-17T08:55:38;11.70;;;7.80;;
50495;SDS011;38806;51.554;5.704;2022-10-17T08:57:41;13.25;;;6.82;;
50495;SDS011;38806;51.554;5.704;2022-10-17T08:59:43;10.43;;;6.22;;
50495;SDS011;38806;51.554;5.704;2022-10-17T09:01:47;11.25;;;6.15;;
50495;SDS011;38806;51.554;5.704;2022-10-17T09:06:23;10.55;;;6.55;;
50495;SDS011;38806;51.554;5.704;2022-10-17T09:15:42;11.27;;;6.72;;
50495;SDS011;38806;51.554;5.704;2022-10-17T09:20:11;12.32;;;5.88;;
50495;SDS011;38806;51.554;5.704;2022-10-17T09:22:20;9.18;;;6.07;;
50495;SDS011;38806;51.554;5.704;2022-10-17T09:24:27;13.50;;;6.75;;
50495;SDS011;38806;51.554;5.704;2022-10-17T09:26:30;13.00;;;7.22;;
50495;SDS011;38806;51.554;5.704;2022-10-17T09:28:32;9.52;;;7.32;;
50495;SDS011;38806;51.554;5.704;2022-10-17T09:30:42;11.80;;;7.30;;
50495;SDS011;38806;51.554;5.704;2022-10-17T09:32:44;17.42;;;8.10;;
50495;SDS011;38806;51.554;5.704;2022-10-17T09:34:46;41.17;;;11.35;;
50495;SDS011;38806;51.554;5.704;2022-10-17T09:36:47;44.50;;;15.00;;
50495;SDS011;38806;51.554;5.704;2022-10-17T09:38:48;24.52;;;13.27;;
50495;SDS011;38806;51.554;5.704;2022-10-17T09:40:55;19.15;;;13.15;;
50495;SDS011;38806;51.554;5.704;2022-10-17T09:43:00;21.70;;;14.07;;
50495;SDS011;38806;51.554;5.704;2022-10-17T09:45:20;22.35;;;14.02;;
50495;SDS011;38806;51.554;5.704;2022-10-17T09:49:34;25.63;;;15.00;;
50495;SDS011;38806;51.554;5.704;2022-10-17T09:51:37;23.80;;;15.13;;
50495;SDS011;38806;51.554;5.704;2022-10-17T09:53:39;26.42;;;14.10;;
50495;SDS011;38806;51.554;5.704;2022-10-17T09:55:50;22.50;;;15.40;;
50495;SDS011;38806;51.554;5.704;2022-10-17T09:57:56;28.23;;;17.40;;
50495;SDS011;38806;51.554;5.704;2022-10-17T10:00:00;26.00;;;16.10;;
50495;SDS011;38806;51.554;5.704;2022-10-17T10:04:18;25.42;;;16.42;;
50495;SDS011;38806;51.554;5.704;2022-10-17T10:06:19;22.38;;;16.85;;
50495;SDS011;38806;51.554;5.704;2022-10-17T10:08:19;35.92;;;21.45;;
50495;SDS011;38806;51.554;5.704;2022-10-17T10:10:24;34.63;;;20.05;;
50495;SDS011;38806;51.554;5.704;2022-10-17T10:12:30;32.90;;;19.30;;
50495;SDS011;38806;51.554;5.704;2022-10-17T10:16:35;34.42;;;19.88;;
50495;SDS011;38806;51.554;5.704;2022-10-17T10:18:42;24.67;;;17.60;;
50495;SDS011;38806;51.554;5.704;2022-10-17T10:20:42;24.85;;;17.55;;
50495;SDS011;38806;51.554;5.704;2022-10-17T10:22:52;30.48;;;19.52;;
50495;SDS011;38806;51.554;5.704;2022-10-17T10:27:16;27.65;;;18.52;;
50495;SDS011;38806;51.554;5.704;2022-10-17T10:29:22;22.55;;;17.27;;
50495;SDS011;38806;51.554;5.704;2022-10-17T10:31:27;29.45;;;19.45;;
50495;SDS011;38806;51.554;5.704;2022-10-17T10:33:29;34.35;;;20.50;;
50495;SDS011;38806;51.554;5.704;2022-10-17T10:35:33;20.42;;;14.77;;
50495;SDS011;38806;51.554;5.704;2022-10-17T10:37:42;18.23;;;14.18;;
50495;SDS011;38806;51.554;5.704;2022-10-17T10:39:48;24.65;;;15.02;;
50495;SDS011;38806;51.554;5.704;2022-10-17T10:41:50;19.85;;;14.60;;
50495;SDS011;38806;51.554;5.704;2022-10-17T10:43:51;23.48;;;17.02;;
50495;SDS011;38806;51.554;5.704;2022-10-17T10:45:53;24.67;;;16.73;;
50495;SDS011;38806;51.554;5.704;2022-10-17T10:47:55;21.38;;;14.82;;
50495;SDS011;38806;51.554;5.704;2022-10-17T10:52:31;31.33;;;18.02;;
50495;SDS011;38806;51.554;5.704;2022-10-17T10:54:42;25.17;;;16.42;;
50495;SDS011;38806;51.554;5.704;2022-10-17T10:56:51;35.08;;;21.27;;
50495;SDS011;38806;51.554;5.704;2022-10-17T10:59:10;30.20;;;18.60;;
50495;SDS011;38806;51.554;5.704;2022-10-17T11:06:12;28.98;;;18.10;;
50495;SDS011;38806;51.554;5.704;2022-10-17T11:10:29;28.60;;;18.75;;
50495;SDS011;38806;51.554;5.704;2022-10-17T11:15:07;40.58;;;22.52;;
50495;SDS011;38806;51.554;5.704;2022-10-17T11:21:46;33.83;;;21.45;;
50495;SDS011;38806;51.554;5.704;2022-10-17T11:23:55;30.40;;;19.83;;
50495;SDS011;38806;51.554;5.704;2022-10-17T11:26:28;30.70;;;21.27;;
50495;SDS011;38806;51.554;5.704;2022-10-17T11:28:31;27.08;;;17.55;;
50495;SDS011;38806;51.554;5.704;2022-10-17T11:30:40;33.45;;;23.98;;
50495;SDS011;38806;51.554;5.704;2022-10-17T11:32:47;29.13;;;20.50;;
50495;SDS011;38806;51.554;5.704;2022-10-17T11:35:26;29.60;;;19.55;;
50495;SDS011;38806;51.554;5.704;2022-10-17T11:37:24;28.00;;;18.20;;
50495;SDS011;38806;51.554;5.704;2022-10-17T11:39:31;31.35;;;22.88;;
50495;SDS011;38806;51.554;5.704;2022-10-17T11:41:42;18.60;;;15.55;;
50495;SDS011;38806;51.554;5.704;2022-10-17T11:44:12;29.08;;;19.20;;
50495;SDS011;38806;51.554;5.704;2022-10-17T11:46:29;24.75;;;16.65;;
50495;SDS011;38806;51.554;5.704;2022-10-17T11:48:38;30.23;;;19.73;;
50495;SDS011;38806;51.554;5.704;2022-10-17T11:50:41;25.67;;;19.05;;
50495;SDS011;38806;51.554;5.704;2022-10-17T11:52:47;31.60;;;21.90;;
50495;SDS011;38806;51.554;5.704;2022-10-17T11:54:52;28.98;;;20.85;;
50495;SDS011;38806;51.554;5.704;2022-10-17T12:01:57;31.25;;;21.40;;
50495;SDS011;38806;51.554;5.704;2022-10-17T12:04:10;23.35;;;17.17;;
50495;SDS011;38806;51.554;5.704;2022-10-17T12:06:29;25.10;;;19.30;;
50495;SDS011;38806;51.554;5.704;2022-10-17T12:11:13;26.80;;;19.58;;
50495;SDS011;38806;51.554;5.704;2022-10-17T12:15:28;31.60;;;22.55;;
50495;SDS011;38806;51.554;5.704;2022-10-17T12:17:31;35.03;;;22.85;;
50495;SDS011;38806;51.554;5.704;2022-10-17T12:19:34;23.90;;;17.77;;
50495;SDS011;38806;51.554;5.704;2022-10-17T12:23:56;30.35;;;19.25;;
50495;SDS011;38806;51.554;5.704;2022-10-17T12:25:58;43.17;;;25.30;;
50495;SDS011;38806;51.554;5.704;2022-10-17T12:30:22;38.35;;;23.35;;
50495;SDS011;38806;51.554;5.704;2022-10-17T12:32:24;26.17;;;19.60;;
50495;SDS011;38806;51.554;5.704;2022-10-17T12:34:25;33.95;;;21.48;;
50495;SDS011;38806;51.554;5.704;2022-10-17T12:38:26;26.63;;;21.25;;
50495;SDS011;38806;51.554;5.704;2022-10-17T12:42:43;26.20;;;18.17;;
50495;SDS011;38806;51.554;5.704;2022-10-17T12:44:46;27.67;;;18.23;;
50495;SDS011;38806;51.554;5.704;2022-10-17T12:49:01;24.63;;;16.50;;
50495;SDS011;38806;51.554;5.704;2022-10-17T12:51:18;22.40;;;16.33;;
50495;SDS011;38806;51.554;5.704;2022-10-17T12:53:24;24.17;;;18.90;;
50495;SDS011;38806;51.554;5.704;2022-10-17T12:55:29;24.92;;;16.60;;
50495;SDS011;38806;51.554;5.704;2022-10-17T12:57:34;21.95;;;15.85;;
50495;SDS011;38806;51.554;5.704;2022-10-17T12:59:35;22.92;;;15.65;;
50495;SDS011;38806;51.554;5.704;2022-10-17T13:01:36;21.25;;;16.02;;
50495;SDS011;38806;51.554;5.704;2022-10-17T13:03:41;22.42;;;14.73;;
50495;SDS011;38806;51.554;5.704;2022-10-17T13:05:50;21.67;;;16.08;;
50495;SDS011;38806;51.554;5.704;2022-10-17T13:07:52;27.02;;;16.35;;
50495;SDS011;38806;51.554;5.704;2022-10-17T13:09:55;24.08;;;16.00;;
50495;SDS011;38806;51.554;5.704;2022-10-17T13:11:56;18.10;;;14.75;;
50495;SDS011;38806;51.554;5.704;2022-10-17T13:14:00;25.80;;;17.58;;
50495;SDS011;38806;51.554;5.704;2022-10-17T13:16:02;21.48;;;17.15;;
50495;SDS011;38806;51.554;5.704;2022-10-17T13:18:02;26.92;;;17.25;;
50495;SDS011;38806;51.554;5.704;2022-10-17T13:20:03;31.13;;;17.20;;
50495;SDS011;38806;51.554;5.704;2022-10-17T13:22:21;23.52;;;17.50;;
50495;SDS011;38806;51.554;5.704;2022-10-17T13:24:29;22.40;;;16.75;;
50495;SDS011;38806;51.554;5.704;2022-10-17T13:26:37;28.35;;;15.38;;
50495;SDS011;38806;51.554;5.704;2022-10-17T13:29:00;22.63;;;16.63;;
50495;SDS011;38806;51.554;5.704;2022-10-17T13:31:06;22.98;;;17.20;;
50495;SDS011;38806;51.554;5.704;2022-10-17T13:35:38;24.10;;;17.35;;
50495;SDS011;38806;51.554;5.704;2022-10-17T13:37:42;23.75;;;18.08;;
50495;SDS011;38806;51.554;5.704;2022-10-17T13:39:45;25.17;;;17.48;;
50495;SDS011;38806;51.554;5.704;2022-10-17T13:41:47;22.35;;;16.08;;